createdAt,value
2023-02-04T06:02:56.837Z,13.70
2023-02-04T06:05:23.818Z,8.60
2023-02-04T06:07:50.591Z,6.82
2023-02-04T06:10:17.648Z,12.43
2023-02-04T06:12:44.872Z,6.60
2023-02-04T06:15:11.803Z,6.57
2023-02-04T06:17:39.503Z,5.93
2023-02-04T06:20:07.468Z,8.25
2023-02-04T06:22:34.896Z,11.00
2023-02-04T06:25:01.449Z,13.05
2023-02-04T06:27:28.630Z,9.10
2023-02-04T06:29:55.487Z,8.85
2023-02-04T06:32:22.713Z,9.73
2023-02-04T06:34:49.798Z,8.02
2023-02-04T06:37:17.496Z,7.47
2023-02-04T06:39:44.383Z,9.27
2023-02-04T06:42:11.534Z,11.52
2023-02-04T06:44:38.116Z,4.47
2023-02-04T06:47:05.303Z,11.43
2023-02-04T06:49:31.881Z,11.35
2023-02-04T06:51:59.141Z,6.15
2023-02-04T06:54:25.690Z,9.45
2023-02-04T06:56:52.907Z,10.98
2023-02-04T06:59:19.486Z,11.35
2023-02-04T07:01:46.820Z,9.10
2023-02-04T07:04:13.401Z,6.45
2023-02-04T07:06:40.260Z,7.63
2023-02-04T07:09:07.499Z,6.95
2023-02-04T07:11:34.099Z,7.60
2023-02-04T07:14:01.306Z,7.63
2023-02-04T07:16:27.884Z,4.82
2023-02-04T07:18:55.062Z,10.70
2023-02-04T07:21:21.602Z,9.02
2023-02-04T07:23:48.758Z,12.07
2023-02-04T07:26:15.334Z,11.25
2023-02-04T07:28:43.748Z,25.05
2023-02-04T07:31:10.528Z,27.35
2023-02-04T07:33:38.122Z,44.75
2023-02-04T07:36:05.050Z,39.65
2023-02-04T07:38:32.478Z,23.08
2023-02-04T07:40:59.216Z,15.35
2023-02-04T07:43:26.493Z,14.77
2023-02-04T07:45:53.051Z,12.30
2023-02-04T07:48:20.289Z,13.27
2023-02-04T07:50:46.850Z,9.60
2023-02-04T07:53:14.580Z,9.73
2023-02-04T07:55:41.134Z,7.32
2023-02-04T07:58:08.448Z,9.55
2023-02-04T08:00:34.985Z,16.40
2023-02-04T08:03:02.169Z,6.00
2023-02-04T08:05:30.337Z,8.45
2023-02-04T08:07:58.857Z,8.63
2023-02-04T08:10:25.433Z,15.27
2023-02-04T08:12:52.635Z,5.85
2023-02-04T08:15:19.205Z,8.75
2023-02-04T08:17:46.425Z,9.45
2023-02-04T08:20:13.140Z,6.35
2023-02-04T08:22:40.461Z,10.27
2023-02-04T08:25:07.527Z,9.07
2023-02-04T08:27:34.759Z,10.13
2023-02-04T08:30:01.322Z,14.43
2023-02-04T08:32:29.556Z,9.57
2023-02-04T08:34:56.121Z,11.50
2023-02-04T08:37:23.534Z,6.18
2023-02-04T08:39:50.182Z,7.97
2023-02-04T08:42:17.445Z,6.57
2023-02-04T08:44:44.066Z,6.57
2023-02-04T08:47:11.491Z,7.88
2023-02-04T08:49:38.050Z,8.77
2023-02-04T08:52:06.880Z,13.13
2023-02-04T08:54:34.124Z,9.13
2023-02-04T08:57:02.081Z,5.95
2023-02-04T08:59:28.773Z,7.05
2023-02-04T09:01:55.635Z,7.20
2023-02-04T09:04:24.125Z,6.78
2023-02-04T09:06:52.035Z,6.80
2023-02-04T09:09:19.357Z,23.52
2023-02-04T09:11:47.510Z,4.90
2023-02-04T09:14:14.288Z,4.32
2023-02-04T09:16:41.543Z,10.68
2023-02-04T09:19:10.876Z,4.63
2023-02-04T09:21:38.126Z,5.47
2023-02-04T09:24:04.762Z,4.70
2023-02-04T09:26:32.017Z,4.70
2023-02-04T09:28:58.649Z,9.35
2023-02-04T09:31:25.996Z,7.07
2023-02-04T09:33:52.626Z,4.57
2023-02-04T09:36:20.861Z,7.82
2023-02-04T09:38:47.416Z,10.38
2023-02-04T09:41:15.198Z,8.57
2023-02-04T09:43:44.948Z,6.95
2023-02-04T09:46:28.748Z,5.35
2023-02-04T09:48:56.085Z,6.57
2023-02-04T09:51:28.657Z,7.22
2023-02-04T09:54:11.830Z,3.47
2023-02-04T09:56:39.369Z,3.22
2023-02-04T09:59:14.304Z,3.83
2023-02-04T10:01:41.649Z,3.30
2023-02-04T10:04:14.226Z,3.80
2023-02-04T10:06:44.310Z,2.88
2023-02-04T10:09:12.546Z,2.03
2023-02-04T10:11:41.832Z,2.42
2023-02-04T10:14:16.642Z,2.55
2023-02-04T10:16:47.936Z,4.65
2023-02-04T10:19:16.114Z,2.55
2023-02-04T10:21:45.392Z,5.40
2023-02-04T10:24:26.274Z,2.78
2023-02-04T10:26:54.401Z,3.92
2023-02-04T10:29:25.519Z,2.20
2023-02-04T10:31:53.299Z,4.90
2023-02-04T10:34:39.647Z,2.40
2023-02-04T10:37:20.457Z,2.47
2023-02-04T10:39:49.159Z,2.38
2023-02-04T10:42:25.744Z,5.15
2023-02-04T10:44:52.896Z,1.42
2023-02-04T10:47:31.726Z,2.63
2023-02-04T10:50:22.976Z,3.05
2023-02-04T10:52:55.548Z,5.03
2023-02-04T10:55:23.946Z,3.33
2023-02-04T10:57:53.156Z,5.00
2023-02-04T11:00:25.901Z,5.45
2023-02-04T11:02:56.260Z,4.68
2023-02-04T11:05:28.955Z,7.28
2023-02-04T11:07:56.357Z,3.85
2023-02-04T11:10:34.224Z,4.22
2023-02-04T11:13:05.263Z,3.75
2023-02-04T11:15:50.856Z,5.55
2023-02-04T11:18:21.171Z,4.20
2023-02-04T11:23:26.035Z,3.47
2023-02-04T11:26:18.867Z,2.35
2023-02-04T11:28:50.737Z,2.88
2023-02-04T11:31:20.449Z,3.13
2023-02-04T11:33:49.429Z,4.13
2023-02-04T11:36:17.004Z,4.70
2023-02-04T11:38:46.877Z,3.55
2023-02-04T11:41:29.223Z,5.20
2023-02-04T11:43:58.088Z,2.00
2023-02-04T11:46:28.719Z,3.75
2023-02-04T11:48:58.711Z,5.53
2023-02-04T11:54:02.126Z,2.45
2023-02-04T11:56:30.070Z,2.20
2023-02-04T11:58:58.621Z,2.47
2023-02-04T12:01:31.713Z,3.05
2023-02-04T12:04:05.329Z,4.57
2023-02-04T12:06:34.355Z,1.65
2023-02-04T12:09:29.840Z,2.42
2023-02-04T12:11:58.162Z,2.40
2023-02-04T12:14:35.455Z,3.60
2023-02-04T12:17:16.009Z,2.33
2023-02-04T12:19:43.215Z,4.05
2023-02-04T12:22:09.804Z,2.38
2023-02-04T12:24:36.956Z,3.92
2023-02-04T12:27:03.556Z,2.28
2023-02-04T12:29:30.479Z,3.05
2023-02-04T12:31:57.071Z,1.85
2023-02-04T12:34:24.978Z,6.88
2023-02-04T12:36:51.585Z,2.15
2023-02-04T12:39:18.450Z,2.55
2023-02-04T12:41:45.079Z,3.33
2023-02-04T12:44:11.938Z,2.47
2023-02-04T12:46:38.683Z,3.50
2023-02-04T12:49:05.638Z,2.22
2023-02-04T12:51:33.147Z,4.43
2023-02-04T12:54:00.016Z,1.83
2023-02-04T12:56:26.619Z,2.08
2023-02-04T12:58:53.460Z,3.17
2023-02-04T13:01:20.031Z,1.55
2023-02-04T13:03:47.248Z,2.67
2023-02-04T13:06:14.047Z,1.63
2023-02-04T13:08:41.205Z,4.80
2023-02-04T13:11:07.713Z,4.40
2023-02-04T13:13:34.867Z,2.30
2023-02-04T13:16:01.522Z,4.95
2023-02-04T13:18:28.989Z,3.65
2023-02-04T13:20:55.516Z,5.38
2023-02-04T13:23:22.694Z,3.60
2023-02-04T13:25:49.220Z,3.45
2023-02-04T13:28:16.659Z,3.15
2023-02-04T13:30:43.280Z,5.05
2023-02-04T13:33:10.451Z,2.53
2023-02-04T13:35:38.038Z,2.42
2023-02-04T13:38:05.188Z,2.15
2023-02-04T13:40:31.749Z,2.47
2023-02-04T13:42:58.912Z,5.25
2023-02-04T13:45:25.556Z,6.90
2023-02-04T13:47:52.868Z,3.53
2023-02-04T13:50:19.468Z,5.70
2023-02-04T13:52:46.648Z,2.45
2023-02-04T13:55:13.170Z,3.20
2023-02-04T13:57:40.318Z,5.10
2023-02-04T14:00:07.644Z,3.88
2023-02-04T14:02:40.816Z,5.22
2023-02-04T14:05:07.447Z,5.05
2023-02-04T14:07:34.678Z,3.92
2023-02-04T14:10:01.266Z,4.30
2023-02-04T14:12:28.513Z,5.50
2023-02-04T14:14:55.096Z,6.40
2023-02-04T14:17:22.349Z,5.90
2023-02-04T14:19:48.926Z,4.75
2023-02-04T14:22:16.229Z,2.75
2023-02-04T14:24:42.924Z,4.38
2023-02-04T14:27:10.900Z,5.28
2023-02-04T14:29:37.478Z,1.95
2023-02-04T14:32:04.929Z,3.38
2023-02-04T14:34:31.510Z,2.15
2023-02-04T14:36:58.804Z,2.83
2023-02-04T14:39:25.475Z,2.83
2023-02-04T14:41:52.737Z,3.10
2023-02-04T14:44:20.864Z,3.70
2023-02-04T14:46:49.144Z,3.78
2023-02-04T14:49:16.831Z,3.05
2023-02-04T14:51:43.938Z,9.10
2023-02-04T14:54:11.022Z,5.70
2023-02-04T14:56:38.305Z,7.88
2023-02-04T14:59:05.612Z,8.25
2023-02-04T15:01:32.243Z,5.50
2023-02-04T15:03:59.664Z,4.88
2023-02-04T15:06:26.220Z,6.57
2023-02-04T15:08:53.552Z,3.10
2023-02-04T15:11:20.232Z,3.60
2023-02-04T15:13:47.453Z,3.13
2023-02-04T15:16:14.806Z,3.40
2023-02-04T15:18:42.882Z,4.25
2023-02-04T15:21:09.739Z,3.95
2023-02-04T15:23:37.020Z,5.07
2023-02-04T15:26:03.986Z,4.15
2023-02-04T15:28:31.394Z,3.70
2023-02-04T15:30:58.404Z,4.18
2023-02-04T15:33:25.794Z,3.53
2023-02-04T15:35:52.393Z,6.55
2023-02-04T15:38:19.399Z,4.32
2023-02-04T15:40:45.980Z,4.30
2023-02-04T15:43:12.853Z,3.95
2023-02-04T15:45:41.401Z,7.32
2023-02-04T15:48:08.916Z,4.43
2023-02-04T15:50:36.250Z,7.32
2023-02-04T15:53:04.246Z,8.10
2023-02-04T15:55:30.827Z,6.13
2023-02-04T15:57:57.648Z,7.30
2023-02-04T16:00:25.132Z,9.10
2023-02-04T16:02:52.447Z,6.40
2023-02-04T16:05:19.603Z,5.90
2023-02-04T16:07:46.171Z,4.70
2023-02-04T16:10:13.127Z,4.78
2023-02-04T16:12:39.681Z,3.17
2023-02-04T16:15:06.970Z,3.15
2023-02-04T16:17:33.928Z,4.30
2023-02-04T16:20:01.607Z,5.63
2023-02-04T16:22:28.794Z,6.32
2023-02-04T16:24:55.602Z,5.95
2023-02-04T16:27:22.952Z,3.58
2023-02-04T16:29:49.491Z,4.22
2023-02-04T16:32:16.783Z,3.65
2023-02-04T16:34:43.456Z,3.83
2023-02-04T16:37:10.304Z,3.90
2023-02-04T16:39:38.952Z,3.05
2023-02-04T16:42:08.643Z,12.82
2023-02-04T16:44:39.046Z,18.48
2023-02-04T16:47:07.521Z,18.90
2023-02-04T16:49:34.532Z,19.73
2023-02-04T16:52:04.626Z,12.00
2023-02-04T16:54:31.823Z,7.47
2023-02-04T16:57:00.542Z,5.82
2023-02-04T16:59:28.189Z,8.30
2023-02-04T17:01:57.935Z,12.00
2023-02-04T17:04:24.946Z,10.82
2023-02-04T17:06:52.407Z,10.18
2023-02-04T17:09:19.732Z,9.15
2023-02-04T17:11:46.957Z,8.65
2023-02-04T17:14:17.324Z,8.88
2023-02-04T17:16:45.803Z,6.85
2023-02-04T17:19:14.420Z,5.43
2023-02-04T17:21:41.648Z,4.18
2023-02-04T17:24:08.807Z,4.18
2023-02-04T17:26:38.534Z,5.18
2023-02-04T17:29:09.559Z,5.65
2023-02-04T17:31:37.576Z,7.65
2023-02-04T17:34:05.205Z,5.97
2023-02-04T17:36:33.073Z,7.50
2023-02-04T17:38:59.753Z,8.23
2023-02-04T17:41:26.943Z,10.90
2023-02-04T17:43:53.808Z,8.50
2023-02-04T17:46:21.136Z,9.23
2023-02-04T17:48:47.721Z,8.20
2023-02-04T17:51:15.014Z,8.88
2023-02-04T17:53:41.799Z,8.20
2023-02-04T17:56:14.455Z,8.88
2023-02-04T17:58:42.185Z,9.38
2023-02-04T18:01:15.615Z,8.52
2023-02-04T18:03:43.219Z,7.15
2023-02-04T18:06:29.562Z,15.55
2023-02-04T18:09:01.937Z,17.08
2023-02-04T18:11:37.699Z,16.52
2023-02-04T18:14:27.627Z,9.48
2023-02-04T18:19:35.452Z,12.75
2023-02-04T18:22:09.914Z,10.40
2023-02-04T18:24:39.980Z,10.90
2023-02-04T18:27:18.009Z,10.57
2023-02-04T18:29:51.263Z,10.80
2023-02-04T18:32:32.310Z,8.65
2023-02-04T18:35:02.560Z,9.50
2023-02-04T18:37:37.530Z,10.00
2023-02-04T18:40:10.804Z,6.30
2023-02-04T18:42:42.427Z,8.82
2023-02-04T18:45:32.270Z,7.70
2023-02-04T18:48:22.635Z,6.45
2023-02-04T18:50:54.450Z,5.93
2023-02-04T18:53:28.437Z,5.07
2023-02-04T18:56:01.421Z,4.82
2023-02-04T18:58:41.475Z,5.70
2023-02-04T19:01:11.716Z,5.10
2023-02-04T19:04:01.780Z,7.97
2023-02-04T19:06:33.409Z,5.60
2023-02-04T19:09:12.219Z,5.88
2023-02-04T19:12:08.472Z,4.72
2023-02-04T19:14:39.072Z,9.77
2023-02-04T19:17:16.911Z,6.57
2023-02-04T19:19:54.593Z,7.70
2023-02-04T19:22:35.809Z,8.00
2023-02-04T19:25:25.456Z,9.90
2023-02-04T19:27:54.834Z,6.10
2023-02-04T19:30:28.315Z,7.40
2023-02-04T19:32:58.275Z,6.63
2023-02-04T19:35:28.833Z,7.78
2023-02-04T19:38:02.956Z,6.72
2023-02-04T19:40:35.599Z,6.85
2023-02-04T19:43:08.232Z,6.38
2023-02-04T19:45:35.819Z,8.52
2023-02-04T19:48:28.852Z,8.43
2023-02-04T19:50:56.011Z,8.48
2023-02-04T19:53:27.989Z,6.43
2023-02-04T19:55:55.315Z,6.13
2023-02-04T19:58:36.718Z,7.03
2023-02-04T20:01:06.500Z,8.93
2023-02-04T20:03:43.292Z,5.07
2023-02-04T20:06:10.471Z,5.47
2023-02-04T20:08:43.958Z,6.43
2023-02-04T20:11:36.029Z,4.65
2023-02-04T20:14:14.459Z,4.53
2023-02-04T20:17:11.345Z,4.70
2023-02-04T20:19:38.346Z,4.90
2023-02-04T20:22:23.507Z,20.85
2023-02-04T20:24:51.693Z,5.03
2023-02-04T20:27:26.140Z,4.35
2023-02-04T20:30:21.154Z,6.13
2023-02-04T20:32:54.033Z,4.00
2023-02-04T20:35:21.184Z,4.60
2023-02-04T20:37:54.026Z,3.80
2023-02-04T20:40:27.687Z,5.05
2023-02-04T20:42:59.832Z,5.18
2023-02-04T20:45:49.857Z,7.30
2023-02-04T20:48:16.351Z,8.32
2023-02-04T20:50:54.711Z,25.65
2023-02-04T20:53:24.207Z,10.95
2023-02-04T20:55:51.375Z,6.70
2023-02-04T20:58:21.961Z,5.05
2023-02-04T21:00:52.460Z,7.38
2023-02-04T21:03:37.931Z,5.97
2023-02-04T21:06:22.451Z,6.18
2023-02-04T21:08:51.500Z,4.38
2023-02-04T21:11:18.118Z,6.13
2023-02-04T21:13:44.982Z,6.93
2023-02-04T21:16:12.187Z,5.57
2023-02-04T21:18:39.608Z,7.03
2023-02-04T21:21:08.904Z,5.60
2023-02-04T21:23:36.662Z,6.93
2023-02-04T21:26:04.955Z,5.15
2023-02-04T21:28:32.672Z,5.63
